الصفحة الرئيسية
METAR-TAF:

METAR-TAF

مطار :

لوساكا, زامبيا

دائرة عرض: 15-19-51S, خط طول: 028-27-09E, ارتفاع: 1152 متر

مراقبة الطقس الحالي

تاريخ ووقت الإصدار 24 دقيقة قبل الساعة 10:00UTC
ريح 6 عقدة من الشمال الغربي
درجة الحرارة 33°درجة مئوية
الرطوبة 32%
ضغط 1016 hPa
الرؤية 10 كم أو أكثر
غيوم متفرقة على ارتفاع 3500 قدم

METAR: FLKK 221000Z 32006KT 9999 SCT035 33/14 Q1016

زمن: 12:24 (10:24 UTC)


TAF: مفقودة

أرصاد الطقس والتوقعات من أكثر من 4000 مطار (تقارير الطقس للمطار METAR والتنبؤ بالطقس بالمطارTAF).

المحطات المتاحة هي النقط الصفراء والحمراء على الخريطة.

حرك المؤشر فوق النقطة لمعرفة اسم المحطة.

ثم انقر لمعرفة أرصاد وتوقعات الطقس.

لتغيير الخارطة: اضغط على الأزرار الخضراء مع رمز الصليب الأسود للتكبير. على الزر الأخضر مع شرطة للتصغير، أو على الأسهم الخضراء للخرائط المجاورة.


METAR-TAF: